Melrose, MN (56352)

4:43 PM CST on February 22, 2017 (GMT -0600)
Sauk Centre | | Change Station
Active Advisory: Winter Storm Watch

Elev 1243 ft 45.71 °N, 94.93 °W | Updated 12 minutes ago

Overcast
Overcast
42 °F
Feels Like 35 °F
N
10
Wind Variable Wind from NNW
Gusts 18 mph

Today
High -- | Low -- °F
--% Chance of Precip.
Yesterday
High -- | Low -- °F
Precip. -- in
Pressure 29.64 in
Visibility 10.0 miles
Clouds Scattered Clouds 1200 ft
Overcast 7000 ft
Windchill 35 °F
Dew Point 37 °F
Humidity 84%
Rainfall 0.00 in
Snow Depth Not available.
7:09 AM 5:56 PM
Waning Crescent, 14% visible
METAR KD39 222231Z AUTO 33009G16KT 10SM SCT012 OVC070 05/03 A2964 RMK AO2 T00530028
Pressure 29.64 in
Visibility 10.0 miles
Clouds Scattered Clouds 1200 ft
Overcast 7000 ft
Windchill 35 °F
Dew Point 37 °F
Humidity 84%
Rainfall 0.00 in
Snow Depth Not available.
7:09 AM 5:56 PM
Waning Crescent, 14% visible
METAR KD39 222231Z AUTO 33009G16KT 10SM SCT012 OVC070 05/03 A2964 RMK AO2 T00530028

Get Your Daily Forecast Email!

Thanks for signing up!

Be on the lookout for a verification email in your inbox.

You'll start receiving the daily forecast at 8 AM.

×

10-Day Weather Forecast

Almanac

Astronomy

Feb. 22, 2017 Rise Set
Actual Time
Civil Twilight
Nautical Twilight
Astronomical Twilight
Moon
Length of Visible Light
Length of Day
Tomorrow will be .
, % of the Moon is Illuminated

Today's Extremes

State Highs State Lows

Community

WunderPhotos

Upload Photos

1,962,540 photos uploaded!

WunderBlog® & News

Nearby

Air Quality

  Air Quality AQ Index Pollutant
Not available.

Snow Depth

Station Depth Elevation

Earthquake Activity

City Distance Mag. Time & Date
Minimum magnitude displayed is 2.5.

Coastal Water Temperatures

Place Temperature

Stations

Nearby Weather Stations

Station Location Temp. Windchill Dew Point Humidity Wind Precip. Elev Updated Type
                   

Watches & Warnings

Winter Storm Watch
Issued: 3:26 PM CST Feb. 22, 2017 – National Weather Service

... Winter Storm Watch remains in effect from Thursday evening
through Friday evening...

* timing... rain will turn to snow Thursday evening and continue
through Friday evening.

* Snow accumulations... 6 to 12 inches are likely, with amounts
in excess of 12 inches possible.

* Winds... northeast to northwest 20 to 30 mph with gusts to 40
mph resulting in considerable blowing snow and possible
blizzard conditions.

Precautionary/preparedness actions...

A Winter Storm Watch means there is a potential for significant
snow... sleet... or ice accumulations that may impact travel.
Continue to monitor the latest forecasts.



Jrb